createdAt,value
2018-03-18T00:00:17.977Z,96536.51
2018-03-18T00:01:22.418Z,96770.96
2018-03-18T00:02:26.675Z,96766.12
2018-03-18T00:03:30.666Z,96759.88
2018-03-18T00:04:34.808Z,96763.36
2018-03-18T00:05:38.884Z,96756.38
2018-03-18T00:06:42.933Z,96628.17
2018-03-18T00:07:47.354Z,96766.87
2018-03-18T00:08:51.420Z,96723.55
2018-03-18T00:09:55.400Z,96686.63
2018-03-18T00:10:59.474Z,96721.59
2018-03-18T00:12:03.455Z,96720.90
2018-03-18T00:13:07.371Z,96769.86
2018-03-18T00:14:11.625Z,96722.92
2018-03-18T00:15:15.670Z,96756.41
2018-03-18T00:16:19.739Z,96719.38
2018-03-18T00:17:23.672Z,96723.62
2018-03-18T00:18:27.690Z,96759.14
2018-03-18T00:19:31.858Z,96755.16
2018-03-18T00:20:36.196Z,96747.16
2018-03-18T00:21:40.211Z,96750.23
2018-03-18T00:22:44.367Z,96724.67
2018-03-18T00:23:48.376Z,96717.86
2018-03-18T00:24:52.500Z,96758.98
2018-03-18T00:25:56.541Z,96763.27
2018-03-18T00:27:00.947Z,96685.26
2018-03-18T00:28:04.955Z,96769.44
2018-03-18T00:29:08.950Z,96763.66
2018-03-18T00:30:13.113Z,96722.45
2018-03-18T00:31:17.108Z,96729.55
2018-03-18T00:32:21.809Z,96730.80
2018-03-18T00:33:26.098Z,96736.02
2018-03-18T00:34:30.162Z,96829.81
2018-03-18T00:35:34.331Z,96780.67
2018-03-18T00:36:38.341Z,96725.50
2018-03-18T00:37:42.353Z,96774.20
2018-03-18T00:38:46.320Z,96778.56
2018-03-18T00:39:50.582Z,96777.70
2018-03-18T00:40:54.557Z,96653.80
2018-03-18T00:41:58.579Z,96742.80
2018-03-18T00:43:02.680Z,96776.37
2018-03-18T00:44:06.673Z,96769.78
2018-03-18T00:45:10.722Z,96732.83
2018-03-18T00:46:15.193Z,96780.90
2018-03-18T00:47:19.213Z,96786.09
2018-03-18T00:48:23.223Z,96783.32
2018-03-18T00:49:27.206Z,96807.67
2018-03-18T00:50:31.240Z,96785.46
2018-03-18T00:51:35.440Z,96785.30
2018-03-18T00:52:40.003Z,96736.16
2018-03-18T00:53:44.252Z,96772.69
2018-03-18T00:54:48.409Z,96779.99
2018-03-18T00:55:52.642Z,96783.03
2018-03-18T00:56:56.734Z,96743.56
2018-03-18T00:58:00.779Z,96788.14
2018-03-18T00:59:05.376Z,96781.12
2018-03-18T01:00:09.550Z,96602.31
2018-03-18T01:01:13.625Z,96788.06
2018-03-18T01:02:17.700Z,96789.94
2018-03-18T01:03:21.801Z,96604.89
2018-03-18T01:04:25.866Z,96787.23
2018-03-18T01:05:30.060Z,96785.48
2018-03-18T01:06:34.145Z,96746.26
2018-03-18T01:07:38.280Z,96771.84
2018-03-18T01:08:42.320Z,96786.97
2018-03-18T01:09:46.386Z,96730.39
2018-03-18T01:10:50.823Z,96651.30
2018-03-18T01:11:55.141Z,96737.67
2018-03-18T01:12:59.272Z,96788.02
2018-03-18T01:14:03.392Z,96736.39
2018-03-18T01:15:07.446Z,96587.03
2018-03-18T01:16:11.520Z,96707.34
2018-03-18T01:17:15.961Z,96697.88
2018-03-18T01:18:20.223Z,96790.16
2018-03-18T01:19:24.205Z,96790.20
2018-03-18T01:20:28.464Z,96743.76
2018-03-18T01:21:32.528Z,96780.72
2018-03-18T01:22:36.747Z,96756.27
2018-03-18T01:23:41.091Z,96791.95
2018-03-18T01:24:45.229Z,96786.66
2018-03-18T01:25:49.539Z,96784.70
2018-03-18T01:26:53.768Z,96793.82
2018-03-18T01:27:58.130Z,96700.80
2018-03-18T01:29:02.345Z,96785.20
2018-03-18T01:30:06.736Z,96649.63
2018-03-18T01:31:10.889Z,96788.20
2018-03-18T01:32:15.063Z,96777.59
2018-03-18T01:33:19.227Z,96780.59
2018-03-18T01:34:23.427Z,96788.94
2018-03-18T01:35:27.768Z,96807.22
2018-03-18T01:36:32.410Z,96823.73
2018-03-18T01:37:36.619Z,96794.41
2018-03-18T01:38:40.702Z,96752.98
2018-03-18T01:39:44.957Z,96790.86
2018-03-18T01:40:50.067Z,96741.80
2018-03-18T01:41:54.309Z,96663.29
2018-03-18T01:42:58.999Z,96781.45
2018-03-18T01:44:03.184Z,96773.49
2018-03-18T01:45:07.260Z,96778.29
2018-03-18T01:46:11.567Z,96784.53
2018-03-18T01:47:15.788Z,96692.72
2018-03-18T01:48:19.890Z,96787.82
2018-03-18T01:49:24.661Z,96780.41
2018-03-18T01:50:28.938Z,96782.00
2018-03-18T01:51:33.391Z,96775.57
2018-03-18T01:52:37.696Z,96695.06
2018-03-18T01:53:41.984Z,96777.91
2018-03-18T01:54:46.303Z,96784.58
2018-03-18T01:55:50.898Z,96773.61
2018-03-18T01:56:56.156Z,96775.72
2018-03-18T01:58:00.446Z,96730.84
2018-03-18T01:59:04.650Z,96686.02
2018-03-18T02:00:08.797Z,96686.77
2018-03-18T02:01:13.114Z,96775.92
2018-03-18T02:02:17.704Z,96772.02
2018-03-18T02:03:21.903Z,96670.41
2018-03-18T02:04:26.136Z,96772.76
2018-03-18T02:05:30.237Z,96773.66
2018-03-18T02:06:34.748Z,96775.84
2018-03-18T02:07:39.883Z,96775.37
2018-03-18T02:08:44.573Z,96773.14
2018-03-18T02:09:48.954Z,96781.73
2018-03-18T02:10:53.082Z,96771.59
2018-03-18T02:11:57.475Z,96699.58
2018-03-18T02:13:01.812Z,96680.09
2018-03-18T02:14:06.132Z,96725.20
2018-03-18T02:15:10.839Z,96864.80
2018-03-18T02:16:15.209Z,96771.52
2018-03-18T02:17:19.448Z,96737.31
2018-03-18T02:18:23.571Z,96729.17
2018-03-18T02:19:27.892Z,96733.70
2018-03-18T02:20:32.359Z,96724.22
2018-03-18T02:21:36.890Z,96838.61
2018-03-18T02:22:40.978Z,96767.02
2018-03-18T02:23:45.227Z,96774.67
2018-03-18T02:24:49.686Z,96782.90
2018-03-18T02:25:54.087Z,96748.00
2018-03-18T02:26:58.229Z,96736.77
2018-03-18T02:28:02.908Z,96782.70
2018-03-18T02:29:07.284Z,96769.94
2018-03-18T02:30:11.715Z,96766.91
2018-03-18T02:31:19.011Z,96776.27
2018-03-18T02:32:23.398Z,96776.19
2018-03-18T02:33:27.535Z,96777.13
2018-03-18T02:34:32.001Z,96729.67
2018-03-18T02:35:36.419Z,96774.82
2018-03-18T02:36:40.919Z,96726.32
2018-03-18T02:37:44.999Z,96769.67
2018-03-18T02:38:49.292Z,96766.12
2018-03-18T02:39:53.763Z,96766.33
2018-03-18T02:40:58.319Z,96671.25
2018-03-18T02:42:02.491Z,96764.80
2018-03-18T02:43:06.861Z,96717.20
2018-03-18T02:44:11.160Z,96755.09
2018-03-18T02:45:15.390Z,96762.10
2018-03-18T02:46:19.686Z,96759.49
2018-03-18T02:47:24.443Z,96824.69
2018-03-18T02:48:28.815Z,96541.59
2018-03-18T02:49:33.189Z,96754.23
2018-03-18T02:50:37.439Z,96755.76
2018-03-18T02:51:41.954Z,96653.74
2018-03-18T02:52:46.460Z,96764.14
2018-03-18T02:53:50.861Z,96614.75
2018-03-18T02:54:55.497Z,96705.89
2018-03-18T02:55:59.851Z,96754.13
2018-03-18T02:57:03.980Z,96706.75
2018-03-18T02:58:08.493Z,96760.98
2018-03-18T02:59:12.724Z,96762.77
2018-03-18T03:00:17.392Z,96741.22
2018-03-18T03:01:21.944Z,96717.23
2018-03-18T03:02:26.633Z,96757.16
2018-03-18T03:03:30.904Z,96789.19
2018-03-18T03:04:35.192Z,96714.66
2018-03-18T03:05:39.607Z,96672.19
2018-03-18T03:06:44.424Z,96757.31
2018-03-18T03:07:48.618Z,96624.57
2018-03-18T03:08:53.023Z,96754.39
2018-03-18T03:09:57.219Z,96717.58
2018-03-18T03:11:01.534Z,96757.35
2018-03-18T03:12:05.862Z,96668.01
2018-03-18T03:13:10.565Z,96756.45
2018-03-18T03:14:14.947Z,96757.00
2018-03-18T03:15:19.056Z,96759.18
2018-03-18T03:16:23.271Z,96700.77
2018-03-18T03:17:27.631Z,96762.84
2018-03-18T03:18:31.928Z,96749.19
2018-03-18T03:19:36.624Z,96753.55
2018-03-18T03:20:40.993Z,96750.91
2018-03-18T03:21:45.179Z,96760.70
2018-03-18T03:22:49.413Z,96753.55
2018-03-18T03:23:53.716Z,96751.17
2018-03-18T03:24:57.977Z,96750.78
2018-03-18T03:26:02.804Z,96666.95
2018-03-18T03:27:07.074Z,96753.08
2018-03-18T03:28:11.239Z,96746.77
2018-03-18T03:29:15.532Z,96653.58
2018-03-18T03:30:19.882Z,96744.92
2018-03-18T03:31:24.032Z,96756.09
2018-03-18T03:32:28.367Z,96754.87
2018-03-18T03:33:32.707Z,96749.62
2018-03-18T03:34:37.021Z,96752.61
2018-03-18T03:35:41.330Z,96694.30
2018-03-18T03:36:45.541Z,96757.53
2018-03-18T03:37:49.829Z,96746.87
2018-03-18T03:38:54.544Z,96738.06
2018-03-18T03:39:58.802Z,96693.40
2018-03-18T03:41:03.135Z,96739.81
2018-03-18T03:42:07.256Z,96746.49
2018-03-18T03:43:11.561Z,96806.00
2018-03-18T03:44:15.886Z,96745.76
2018-03-18T03:45:20.504Z,96754.61
2018-03-18T03:46:24.599Z,96707.96
2018-03-18T03:47:28.876Z,96745.84
2018-03-18T03:48:32.886Z,96748.02
2018-03-18T03:49:37.192Z,96748.33
2018-03-18T03:50:41.499Z,96687.95
2018-03-18T03:51:46.031Z,96743.58
2018-03-18T03:52:50.189Z,96746.61
2018-03-18T03:53:54.376Z,96743.41
2018-03-18T03:54:58.765Z,96649.88
2018-03-18T03:56:02.918Z,96699.72
2018-03-18T03:57:07.082Z,96741.09
2018-03-18T03:58:11.442Z,96697.49
2018-03-18T03:59:15.571Z,96701.45
2018-03-18T04:00:19.669Z,96735.80
2018-03-18T04:01:23.824Z,96728.23
2018-03-18T04:02:27.940Z,96694.50
2018-03-18T04:03:31.979Z,96740.61
2018-03-18T04:04:36.016Z,96698.59
2018-03-18T04:05:39.975Z,96743.58
2018-03-18T04:06:44.261Z,96741.34
2018-03-18T04:07:48.140Z,96695.47
2018-03-18T04:08:52.358Z,96734.88
2018-03-18T04:09:56.541Z,96741.94
2018-03-18T04:11:00.824Z,96745.10
2018-03-18T04:12:04.995Z,96744.31
2018-03-18T04:13:09.092Z,96741.70
2018-03-18T04:14:12.935Z,96698.05
2018-03-18T04:15:17.262Z,96738.23
2018-03-18T04:16:21.592Z,96734.67
2018-03-18T04:17:25.966Z,96750.63
2018-03-18T04:18:30.324Z,96739.68
2018-03-18T04:19:34.288Z,96708.03
2018-03-18T04:20:38.407Z,96738.52
2018-03-18T04:21:42.635Z,96751.31
2018-03-18T04:22:46.611Z,96748.61
2018-03-18T04:23:51.016Z,96744.52
2018-03-18T04:24:55.417Z,96706.16
2018-03-18T04:25:59.737Z,96752.95
2018-03-18T04:27:03.677Z,96699.66
2018-03-18T04:28:08.002Z,96717.27
2018-03-18T04:29:12.022Z,96755.83
2018-03-18T04:30:16.456Z,96753.98
2018-03-18T04:31:20.331Z,96666.64
2018-03-18T04:32:24.403Z,96754.84
2018-03-18T04:33:28.466Z,96754.84
2018-03-18T04:34:32.540Z,96766.44
2018-03-18T04:35:36.549Z,96709.00
2018-03-18T04:36:40.865Z,96751.96
2018-03-18T04:37:44.972Z,96692.66
2018-03-18T04:38:48.822Z,96659.86
2018-03-18T04:39:52.977Z,96754.19
2018-03-18T04:40:57.136Z,96747.01
2018-03-18T04:42:01.132Z,96826.47
2018-03-18T04:43:05.749Z,96723.27
2018-03-18T04:44:09.612Z,96758.05
2018-03-18T04:45:13.761Z,96765.27
2018-03-18T04:46:17.807Z,96632.90
2018-03-18T04:47:22.092Z,96760.77
2018-03-18T04:48:25.958Z,96752.27
2018-03-18T04:49:30.213Z,96661.34
2018-03-18T04:50:34.238Z,96750.86
2018-03-18T04:51:38.292Z,96751.98
2018-03-18T04:52:42.322Z,96755.41
2018-03-18T04:53:46.375Z,96756.47
2018-03-18T04:54:50.582Z,96743.38
2018-03-18T04:55:54.888Z,96751.75
2018-03-18T04:56:59.129Z,96755.83
2018-03-18T04:58:03.215Z,96751.38
2018-03-18T04:59:07.389Z,96832.02
2018-03-18T05:00:11.931Z,96701.05
2018-03-18T05:01:15.849Z,96822.53
2018-03-18T05:02:20.252Z,96759.72
2018-03-18T05:03:24.609Z,96760.19
2018-03-18T05:04:28.868Z,96756.16
2018-03-18T05:05:33.116Z,96754.06
2018-03-18T05:06:37.081Z,96667.11
2018-03-18T05:07:41.218Z,96766.59
2018-03-18T05:08:45.481Z,96765.23
2018-03-18T05:09:49.437Z,96677.59
2018-03-18T05:10:53.463Z,96767.72
2018-03-18T05:11:57.832Z,96689.12
2018-03-18T05:13:01.899Z,96767.25
2018-03-18T05:14:06.278Z,96721.67
2018-03-18T05:15:10.841Z,96763.06
2018-03-18T05:16:14.872Z,96767.40
2018-03-18T05:17:19.485Z,96770.68
2018-03-18T05:18:23.364Z,96730.30
2018-03-18T05:19:27.186Z,96773.14
2018-03-18T05:20:31.117Z,96772.64
2018-03-18T05:21:35.544Z,96772.28
2018-03-18T05:22:39.593Z,96773.61
2018-03-18T05:23:43.556Z,96775.84
2018-03-18T05:24:47.674Z,96762.15
2018-03-18T05:25:51.536Z,96713.20
2018-03-18T05:26:55.584Z,96771.95
2018-03-18T05:28:00.030Z,96775.44
2018-03-18T05:29:04.207Z,96778.94
2018-03-18T05:30:08.198Z,96782.83
2018-03-18T05:31:12.210Z,96792.66
2018-03-18T05:32:16.454Z,96850.96
2018-03-18T05:33:20.392Z,96784.23
2018-03-18T05:34:24.763Z,96788.05
2018-03-18T05:35:28.883Z,96786.77
2018-03-18T05:36:33.026Z,96792.84
2018-03-18T05:37:37.111Z,96785.82
2018-03-18T05:38:41.179Z,96796.43
2018-03-18T05:39:45.637Z,96793.63
2018-03-18T05:40:50.192Z,96793.66
2018-03-18T05:41:54.145Z,96788.78
2018-03-18T05:42:58.912Z,96729.45
2018-03-18T05:44:03.129Z,96792.33
2018-03-18T05:45:07.436Z,96782.06
2018-03-18T05:46:11.545Z,96795.41
2018-03-18T05:47:15.952Z,96797.29
2018-03-18T05:48:20.171Z,96796.74
2018-03-18T05:49:24.482Z,96781.59
2018-03-18T05:50:29.038Z,96805.09
2018-03-18T05:51:33.317Z,96803.38
2018-03-18T05:52:37.728Z,96757.05
2018-03-18T05:53:42.089Z,96804.39
2018-03-18T05:54:46.388Z,96676.11
2018-03-18T05:55:50.971Z,96869.78
2018-03-18T05:56:55.236Z,96806.50
2018-03-18T05:57:59.480Z,96840.70
2018-03-18T05:59:03.829Z,96811.61
2018-03-18T06:00:08.499Z,96809.70
2018-03-18T06:01:12.858Z,96800.66
2018-03-18T06:02:17.098Z,96807.90
2018-03-18T06:03:21.127Z,96882.66
2018-03-18T06:04:25.162Z,96807.43
2018-03-18T06:05:29.154Z,96803.02
2018-03-18T06:06:34.405Z,96810.17
2018-03-18T06:07:38.642Z,96810.68
2018-03-18T06:08:42.754Z,96816.80
2018-03-18T06:09:46.760Z,96814.62
2018-03-18T06:10:50.972Z,96770.69
2018-03-18T06:11:55.286Z,96805.88
2018-03-18T06:12:59.981Z,96808.14
2018-03-18T06:14:04.538Z,96815.63
2018-03-18T06:15:08.961Z,96816.06
2018-03-18T06:16:13.093Z,96813.84
2018-03-18T06:17:17.617Z,96773.90
2018-03-18T06:18:21.955Z,96814.06
2018-03-18T06:19:26.438Z,96817.31
2018-03-18T06:20:30.749Z,96818.17
2018-03-18T06:21:34.806Z,96820.31
2018-03-18T06:22:38.931Z,96777.20
2018-03-18T06:23:43.153Z,96773.90
2018-03-18T06:24:47.457Z,96823.44
2018-03-18T06:25:52.111Z,96826.05
2018-03-18T06:26:56.321Z,96888.75
2018-03-18T06:28:01.045Z,96820.11
2018-03-18T06:29:05.288Z,96888.28
2018-03-18T06:30:09.586Z,96827.48
2018-03-18T06:31:14.003Z,96790.11
2018-03-18T06:32:18.303Z,96832.52
2018-03-18T06:33:22.607Z,96830.37
2018-03-18T06:34:26.770Z,96743.28
2018-03-18T06:35:31.368Z,96754.94
2018-03-18T06:36:35.804Z,96825.15
2018-03-18T06:37:40.497Z,96823.58
2018-03-18T06:38:44.812Z,96834.09
2018-03-18T06:39:49.450Z,96783.30
2018-03-18T06:40:54.050Z,96693.06
2018-03-18T06:41:58.431Z,96832.63
2018-03-18T06:43:02.746Z,96837.59
2018-03-18T06:44:07.489Z,96831.08
2018-03-18T06:45:12.014Z,96837.28
2018-03-18T06:46:16.284Z,96832.06
2018-03-18T06:47:20.780Z,96751.94
2018-03-18T06:48:25.002Z,96842.05
2018-03-18T06:49:29.609Z,96850.39
2018-03-18T06:50:34.283Z,96843.33
2018-03-18T06:51:38.666Z,96717.18
2018-03-18T06:52:43.037Z,96799.20
2018-03-18T06:53:47.359Z,96755.64
2018-03-18T06:54:51.889Z,96834.98
2018-03-18T06:55:56.377Z,96838.53
2018-03-18T06:57:00.835Z,96842.16
2018-03-18T06:58:05.222Z,96844.19
2018-03-18T06:59:09.331Z,96845.52
2018-03-18T07:00:13.559Z,96847.27
2018-03-18T07:01:17.810Z,96798.70
2018-03-18T07:02:22.015Z,96806.11
2018-03-18T07:03:26.501Z,96799.83
2018-03-18T07:04:30.667Z,96853.41
2018-03-18T07:05:34.868Z,96848.05
2018-03-18T07:06:39.315Z,96852.78
2018-03-18T07:07:43.555Z,96843.96
2018-03-18T07:08:47.874Z,96851.61
2018-03-18T07:09:52.381Z,96804.01
2018-03-18T07:10:56.697Z,96762.89
2018-03-18T07:12:01.023Z,96929.37
2018-03-18T07:13:05.310Z,96808.26
2018-03-18T07:14:09.504Z,96856.72
2018-03-18T07:15:13.944Z,96854.53
2018-03-18T07:16:19.502Z,96772.33
2018-03-18T07:17:23.741Z,96893.47
2018-03-18T07:18:28.046Z,96863.86
2018-03-18T07:19:32.512Z,96861.16
2018-03-18T07:20:36.859Z,96867.25
2018-03-18T07:21:41.229Z,96863.74
2018-03-18T07:22:45.868Z,96821.86
2018-03-18T07:23:50.165Z,96861.44
2018-03-18T07:24:54.408Z,96593.91
2018-03-18T07:25:58.857Z,96865.92
2018-03-18T07:27:03.059Z,96865.84
2018-03-18T07:28:07.446Z,96921.13
2018-03-18T07:29:12.118Z,96777.35
2018-03-18T07:30:16.449Z,96867.05
2018-03-18T07:31:21.258Z,96822.87
2018-03-18T07:32:25.555Z,96868.02
2018-03-18T07:33:29.848Z,96869.86
2018-03-18T07:34:33.966Z,96873.45
2018-03-18T07:35:38.516Z,96877.98
2018-03-18T07:36:42.748Z,96882.23
2018-03-18T07:37:46.984Z,96834.97
2018-03-18T07:38:51.015Z,96873.61
2018-03-18T07:39:55.091Z,96880.70
2018-03-18T07:40:59.251Z,96773.00
2018-03-18T07:42:03.584Z,96880.23
2018-03-18T07:43:07.598Z,96878.95
2018-03-18T07:44:11.834Z,96887.34
2018-03-18T07:45:15.994Z,96781.25
2018-03-18T07:46:20.127Z,96882.46
2018-03-18T07:47:24.173Z,96888.67
2018-03-18T07:48:28.478Z,96884.30
2018-03-18T07:49:33.531Z,96880.75
2018-03-18T07:50:37.630Z,96796.22
2018-03-18T07:51:41.794Z,96880.70
2018-03-18T07:52:45.911Z,96938.80
2018-03-18T07:53:49.905Z,96839.41
2018-03-18T07:54:54.228Z,96855.02
2018-03-18T07:55:58.407Z,96899.32
2018-03-18T07:57:02.672Z,96890.42
2018-03-18T07:58:06.715Z,96898.85
2018-03-18T07:59:10.786Z,96856.41
2018-03-18T08:00:14.995Z,96966.90
2018-03-18T08:01:19.600Z,96906.66
2018-03-18T08:02:23.632Z,96895.61
2018-03-18T08:03:27.870Z,96884.26
2018-03-18T08:04:32.006Z,96728.71
2018-03-18T08:05:36.184Z,96898.23
2018-03-18T08:06:40.310Z,96902.59
2018-03-18T08:07:44.755Z,96895.06
2018-03-18T08:08:48.786Z,96899.87
2018-03-18T08:09:52.981Z,96896.78
2018-03-18T08:10:57.065Z,96903.33
2018-03-18T08:12:01.255Z,96902.91
2018-03-18T08:13:05.256Z,96895.38
2018-03-18T08:14:09.572Z,96896.74
2018-03-18T08:15:13.648Z,96904.23
2018-03-18T08:16:17.770Z,96893.73
2018-03-18T08:17:21.771Z,96898.61
2018-03-18T08:18:25.883Z,96896.86
2018-03-18T08:19:29.891Z,96893.66
2018-03-18T08:20:34.492Z,96904.19
2018-03-18T08:21:38.481Z,96899.20
2018-03-18T08:22:42.603Z,96912.00
2018-03-18T08:23:46.614Z,96911.18
2018-03-18T08:24:50.773Z,96880.23
2018-03-18T08:25:54.760Z,96909.81
2018-03-18T08:26:59.209Z,96908.45
2018-03-18T08:28:03.323Z,96908.69
2018-03-18T08:29:07.697Z,96910.68
2018-03-18T08:30:11.838Z,96780.73
2018-03-18T08:31:16.014Z,96906.34
2018-03-18T08:32:20.151Z,96901.13
2018-03-18T08:33:25.335Z,96901.70
2018-03-18T08:34:29.348Z,96911.30
2018-03-18T08:35:33.391Z,96865.23
2018-03-18T08:36:37.479Z,96911.30
2018-03-18T08:37:41.550Z,96916.72
2018-03-18T08:38:45.728Z,96914.27
2018-03-18T08:39:50.060Z,96826.89
2018-03-18T08:40:54.210Z,96908.84
2018-03-18T08:42:00.086Z,96915.55
2018-03-18T08:43:04.058Z,96922.69
2018-03-18T08:44:08.037Z,96923.43
2018-03-18T08:45:12.050Z,96918.52
2018-03-18T08:46:16.053Z,96917.23
2018-03-18T08:47:20.269Z,96762.67
2018-03-18T08:48:24.333Z,96930.22
2018-03-18T08:49:29.061Z,96924.83
2018-03-18T08:50:33.043Z,96928.15
2018-03-18T08:51:37.550Z,96990.44
2018-03-18T08:52:41.773Z,96839.01
2018-03-18T08:53:45.746Z,96928.15
2018-03-18T08:54:49.768Z,96802.78
2018-03-18T08:55:53.878Z,96925.14
2018-03-18T08:56:57.923Z,96932.98
2018-03-18T08:58:02.452Z,96933.81
2018-03-18T08:59:06.561Z,96934.73
2018-03-18T09:00:10.677Z,96924.64
2018-03-18T09:01:14.732Z,96916.68
2018-03-18T09:02:18.854Z,96930.09
2018-03-18T09:03:22.939Z,96929.55
2018-03-18T09:04:27.409Z,96934.63
2018-03-18T09:05:31.513Z,96942.26
2018-03-18T09:06:35.549Z,96929.36
2018-03-18T09:07:39.531Z,96932.09
2018-03-18T09:08:43.486Z,96933.02
2018-03-18T09:09:47.533Z,96930.41
2018-03-18T09:10:51.914Z,96940.55
2018-03-18T09:11:55.993Z,96931.42
2018-03-18T09:13:00.095Z,96936.77
2018-03-18T09:14:04.067Z,96940.86
2018-03-18T09:15:08.036Z,96938.24
2018-03-18T09:16:12.173Z,96597.94
2018-03-18T09:17:16.585Z,96934.11
2018-03-18T09:18:20.721Z,96939.38
2018-03-18T09:19:24.764Z,97007.02
2018-03-18T09:20:28.721Z,96937.16
2018-03-18T09:21:32.622Z,96932.36
2018-03-18T09:22:36.695Z,96928.96
2018-03-18T09:23:41.245Z,96715.95
2018-03-18T09:24:45.275Z,96791.02
2018-03-18T09:25:49.253Z,96939.66
2018-03-18T09:26:54.036Z,96942.30
2018-03-18T09:27:58.158Z,96941.52
2018-03-18T09:29:02.224Z,96929.63
2018-03-18T09:30:06.531Z,96939.77
2018-03-18T09:31:10.441Z,96945.02
2018-03-18T09:32:15.699Z,96921.86
2018-03-18T09:33:19.828Z,96933.56
2018-03-18T09:34:24.304Z,96940.70
2018-03-18T09:35:28.493Z,96941.28
2018-03-18T09:36:33.648Z,96926.54
2018-03-18T09:37:37.720Z,96939.05
2018-03-18T09:38:41.571Z,96940.96
2018-03-18T09:39:46.398Z,96940.96
2018-03-18T09:40:50.522Z,96939.88
2018-03-18T09:41:54.656Z,96799.84
2018-03-18T09:42:59.048Z,96628.54
2018-03-18T09:44:02.944Z,96930.28
2018-03-18T09:45:06.967Z,96944.04
2018-03-18T09:46:11.050Z,96948.57
2018-03-18T09:47:15.005Z,96858.97
2018-03-18T09:48:18.985Z,96952.89
2018-03-18T09:49:23.422Z,96948.92
2018-03-18T09:50:27.395Z,96947.13
2018-03-18T09:51:31.355Z,96822.53
2018-03-18T09:52:35.291Z,96661.54
2018-03-18T09:53:39.203Z,96734.89
2018-03-18T09:54:43.097Z,96956.05
2018-03-18T09:55:47.387Z,96907.20
2018-03-18T09:56:51.241Z,96779.27
2018-03-18T09:57:55.018Z,96971.59
2018-03-18T09:58:58.877Z,96954.06
2018-03-18T10:00:02.774Z,96963.43
2018-03-18T10:01:06.553Z,96956.61
2018-03-18T10:02:11.969Z,96964.99
2018-03-18T10:03:15.759Z,96825.99
2018-03-18T10:04:19.593Z,96912.86
2018-03-18T10:05:23.488Z,96957.34
2018-03-18T10:06:27.469Z,96952.89
2018-03-18T10:07:31.411Z,96959.05
2018-03-18T10:08:35.756Z,96915.30
2018-03-18T10:09:39.755Z,97069.91
2018-03-18T10:10:43.761Z,96967.41
2018-03-18T10:11:47.652Z,96952.34
2018-03-18T10:12:51.677Z,96834.03
2018-03-18T10:13:55.777Z,96969.00
2018-03-18T10:15:00.131Z,96966.38
2018-03-18T10:16:04.011Z,97090.67
2018-03-18T10:17:07.962Z,96962.98
2018-03-18T10:18:12.062Z,96966.26
2018-03-18T10:19:15.971Z,96969.58
2018-03-18T10:20:19.962Z,96971.69
2018-03-18T10:21:28.850Z,96965.41
2018-03-18T10:22:32.671Z,96959.59
2018-03-18T10:23:36.621Z,96971.89
2018-03-18T10:24:40.580Z,96972.31
2018-03-18T10:25:44.539Z,96903.39
2018-03-18T10:26:48.566Z,96971.45
2018-03-18T10:27:52.886Z,96966.38
2018-03-18T10:28:56.923Z,96953.16
2018-03-18T10:30:00.931Z,96966.47
2018-03-18T10:31:04.962Z,96969.66
2018-03-18T10:32:08.952Z,96964.73
2018-03-18T10:33:12.934Z,96966.94
2018-03-18T10:34:21.123Z,96985.15
2018-03-18T10:35:25.259Z,96959.88
2018-03-18T10:36:29.276Z,97031.64
2018-03-18T10:37:33.149Z,96964.12
2018-03-18T10:38:37.132Z,96968.42
2018-03-18T10:39:41.128Z,96948.66
2018-03-18T10:40:45.463Z,96972.08
2018-03-18T10:41:49.538Z,96958.34
2018-03-18T10:42:53.693Z,96959.44
2018-03-18T10:43:57.785Z,96962.33
2018-03-18T10:45:01.988Z,96964.05
2018-03-18T10:46:05.972Z,96968.72
2018-03-18T10:47:11.941Z,96974.73
2018-03-18T10:48:16.499Z,96962.45
2018-03-18T10:49:20.448Z,97083.02
2018-03-18T10:50:24.528Z,96958.34
2018-03-18T10:51:28.489Z,96949.09
2018-03-18T10:52:32.854Z,96969.30
2018-03-18T10:53:37.272Z,96966.66
2018-03-18T10:54:41.308Z,96963.10
2018-03-18T10:55:45.155Z,96960.81
2018-03-18T10:56:49.296Z,96973.59
2018-03-18T10:57:53.656Z,96978.05
2018-03-18T10:58:57.701Z,96976.75
2018-03-18T11:00:02.133Z,96970.20
2018-03-18T11:01:10.138Z,96968.80
2018-03-18T11:02:15.736Z,96968.33
2018-03-18T11:03:19.991Z,96965.60
2018-03-18T11:04:24.022Z,96962.56
2018-03-18T11:05:27.923Z,96964.42
2018-03-18T11:06:32.241Z,96592.73
2018-03-18T11:07:36.321Z,96698.63
2018-03-18T11:08:40.386Z,97086.01
2018-03-18T11:09:44.410Z,96958.34
2018-03-18T11:10:48.333Z,96962.67
2018-03-18T11:11:52.353Z,96974.68
2018-03-18T11:12:56.728Z,96975.15
2018-03-18T11:14:00.806Z,96975.43
2018-03-18T11:15:04.772Z,96963.65
2018-03-18T11:16:08.969Z,96966.92
2018-03-18T11:17:12.876Z,96832.97
2018-03-18T11:18:17.068Z,96966.84
2018-03-18T11:19:21.774Z,96973.94
2018-03-18T11:20:25.667Z,96969.73
2018-03-18T11:21:29.655Z,96969.42
2018-03-18T11:22:33.906Z,96764.61
2018-03-18T11:23:38.116Z,96970.27
2018-03-18T11:24:42.066Z,96932.20
2018-03-18T11:25:46.421Z,96968.16
2018-03-18T11:26:50.513Z,96975.73
2018-03-18T11:27:54.446Z,96973.36
2018-03-18T11:28:58.429Z,96969.73
2018-03-18T11:30:02.489Z,96973.13
2018-03-18T11:31:06.471Z,96968.61
2018-03-18T11:32:10.932Z,96969.23
2018-03-18T11:33:14.991Z,96952.53
2018-03-18T11:34:18.893Z,96967.44
2018-03-18T11:35:22.858Z,96710.88
2018-03-18T11:36:26.898Z,96971.60
2018-03-18T11:37:31.273Z,96962.86
2018-03-18T11:38:35.376Z,96968.63
2018-03-18T11:39:39.388Z,96972.07
2018-03-18T11:40:43.530Z,96844.20
2018-03-18T11:41:47.433Z,96969.92
2018-03-18T11:42:51.308Z,96973.83
2018-03-18T11:43:55.563Z,96883.45
2018-03-18T11:44:59.667Z,97138.22
2018-03-18T11:46:03.657Z,96965.87
2018-03-18T11:47:07.760Z,96965.08
2018-03-18T11:48:12.267Z,96961.58
2018-03-18T11:49:16.518Z,96963.84
2018-03-18T11:50:21.579Z,96968.11
2018-03-18T11:51:26.017Z,96969.29
2018-03-18T11:52:30.057Z,96975.48
2018-03-18T11:53:34.042Z,96760.63
2018-03-18T11:54:38.065Z,96970.00
2018-03-18T11:55:42.178Z,96959.78
2018-03-18T11:56:46.576Z,96966.63
2018-03-18T11:57:50.548Z,96974.13
2018-03-18T11:58:55.278Z,96963.12
2018-03-18T11:59:59.332Z,96713.36
2018-03-18T12:01:03.373Z,96840.18
2018-03-18T12:02:07.400Z,96965.03
2018-03-18T12:03:12.032Z,96970.98
2018-03-18T12:04:16.139Z,96753.22
2018-03-18T12:05:20.219Z,96972.14
2018-03-18T12:06:24.315Z,96967.55
2018-03-18T12:07:28.418Z,96971.38
2018-03-18T12:08:32.695Z,96976.25
2018-03-18T12:09:37.312Z,96967.30
2018-03-18T12:10:41.501Z,96975.50
2018-03-18T12:11:45.933Z,96969.84
2018-03-18T12:12:50.520Z,96913.06
2018-03-18T12:13:54.622Z,96971.25
2018-03-18T12:15:00.245Z,96972.70
2018-03-18T12:16:04.642Z,96832.85
2018-03-18T12:17:08.952Z,96878.70
2018-03-18T12:18:13.323Z,96973.60
2018-03-18T12:19:17.377Z,96976.17
2018-03-18T12:20:22.218Z,96947.84
2018-03-18T12:21:26.464Z,96965.33
2018-03-18T12:22:32.106Z,96970.33
2018-03-18T12:23:36.608Z,96964.45
2018-03-18T12:24:42.417Z,96916.30
2018-03-18T12:25:46.700Z,96960.17
2018-03-18T12:26:51.348Z,96966.66
2018-03-18T12:27:56.109Z,96863.34
2018-03-18T12:29:02.638Z,96958.44
2018-03-18T12:30:08.422Z,96951.11
2018-03-18T12:31:15.368Z,96959.95
2018-03-18T12:32:20.720Z,96952.62
2018-03-18T12:33:25.496Z,96948.73
2018-03-18T12:34:31.518Z,96955.08